createdAt,value
2023-01-22T00:01:13.845Z,70.00
2023-01-22T00:03:44.710Z,72.53
2023-01-22T00:06:14.451Z,70.55
2023-01-22T00:08:42.759Z,71.85
2023-01-22T00:11:12.210Z,72.03
2023-01-22T00:13:40.389Z,73.18
2023-01-22T00:16:11.467Z,71.35
2023-01-22T00:18:39.569Z,73.30
2023-01-22T00:21:08.321Z,73.35
2023-01-22T00:23:36.810Z,74.75
2023-01-22T00:26:06.279Z,75.25
2023-01-22T00:28:34.567Z,72.28
2023-01-22T00:31:04.190Z,73.13
2023-01-22T00:33:34.218Z,72.75
2023-01-22T00:36:05.132Z,75.95
2023-01-22T00:38:33.248Z,73.70
2023-01-22T00:41:02.319Z,74.70
2023-01-22T00:43:30.822Z,78.30
2023-01-22T00:45:58.867Z,75.13
2023-01-22T00:48:27.077Z,74.55
2023-01-22T00:50:57.392Z,73.38
2023-01-22T00:53:25.796Z,77.95
2023-01-22T00:55:54.882Z,82.28
2023-01-22T00:58:22.960Z,82.90
2023-01-22T01:00:51.516Z,93.85
2023-01-22T01:03:30.550Z,97.25
2023-01-22T01:06:02.015Z,98.80
2023-01-22T01:08:31.640Z,101.30
2023-01-22T01:11:01.299Z,104.03
2023-01-22T01:13:31.809Z,106.53
2023-01-22T01:16:01.539Z,119.57
2023-01-22T01:18:30.122Z,116.72
2023-01-22T01:21:00.453Z,119.13
2023-01-22T01:23:29.812Z,120.32
2023-01-22T01:25:58.533Z,125.30
2023-01-22T01:28:28.761Z,131.80
2023-01-22T01:30:57.090Z,128.13
2023-01-22T01:33:25.266Z,129.40
2023-01-22T01:36:01.857Z,129.73
2023-01-22T01:38:30.088Z,136.60
2023-01-22T01:40:58.153Z,137.23
2023-01-22T01:43:26.717Z,136.90
2023-01-22T01:45:55.996Z,135.77
2023-01-22T01:48:29.604Z,131.63
2023-01-22T01:51:04.117Z,134.98
2023-01-22T01:53:33.693Z,138.25
2023-01-22T01:56:04.098Z,132.85
2023-01-22T01:58:34.986Z,126.93
2023-01-22T02:01:09.186Z,127.38
2023-01-22T02:03:37.480Z,121.90
2023-01-22T02:06:10.353Z,124.50
2023-01-22T02:08:38.636Z,122.65
2023-01-22T02:11:07.033Z,121.32
2023-01-22T02:13:38.249Z,117.25
2023-01-22T02:16:07.943Z,116.68
2023-01-22T02:18:36.022Z,113.75
2023-01-22T02:21:05.678Z,102.53
2023-01-22T02:23:33.741Z,102.10
2023-01-22T02:26:01.859Z,98.57
2023-01-22T02:28:29.868Z,93.75
2023-01-22T02:30:57.950Z,93.07
2023-01-22T02:33:25.960Z,88.78
2023-01-22T02:35:54.025Z,83.18
2023-01-22T02:38:23.424Z,78.78
2023-01-22T02:40:51.757Z,78.18
2023-01-22T02:43:19.845Z,72.30
2023-01-22T02:45:47.860Z,72.18
2023-01-22T02:48:16.071Z,68.80
2023-01-22T02:50:45.169Z,63.63
2023-01-22T02:53:13.229Z,63.83
2023-01-22T02:55:45.021Z,62.13
2023-01-22T02:58:13.283Z,60.95
2023-01-22T03:00:41.470Z,58.53
2023-01-22T03:03:15.261Z,53.42
2023-01-22T03:05:49.129Z,53.67
2023-01-22T03:08:17.428Z,51.78
2023-01-22T03:10:47.366Z,49.45
2023-01-22T03:13:32.754Z,49.42
2023-01-22T03:16:18.074Z,48.05
2023-01-22T03:19:03.778Z,49.25
2023-01-22T03:21:32.003Z,48.40
2023-01-22T03:24:00.404Z,47.30
2023-01-22T03:26:31.590Z,46.55
2023-01-22T03:29:00.089Z,46.33
2023-01-22T03:31:28.312Z,45.92
2023-01-22T03:33:56.357Z,46.50
2023-01-22T03:36:24.367Z,44.78
2023-01-22T03:38:52.420Z,44.67
2023-01-22T03:41:20.835Z,44.45
2023-01-22T03:43:50.256Z,44.08
2023-01-22T03:46:20.071Z,43.05
2023-01-22T03:48:52.320Z,44.17
2023-01-22T03:53:49.630Z,41.08
2023-01-22T03:56:19.360Z,41.83
2023-01-22T03:58:49.887Z,41.55
2023-01-22T04:01:20.414Z,43.88
2023-01-22T04:03:48.753Z,38.08
2023-01-22T04:06:17.340Z,37.92
2023-01-22T04:08:46.915Z,36.13
2023-01-22T04:11:15.025Z,35.45
2023-01-22T04:13:44.906Z,34.55
2023-01-22T04:16:15.528Z,34.22
2023-01-22T04:18:44.219Z,33.42
2023-01-22T04:21:13.180Z,32.25
2023-01-22T04:23:41.465Z,28.98
2023-01-22T04:26:09.715Z,28.55
2023-01-22T04:28:37.840Z,28.00
2023-01-22T04:31:08.782Z,26.92
2023-01-22T04:33:38.341Z,26.17
2023-01-22T04:36:06.877Z,25.65
2023-01-22T04:38:34.929Z,24.63
2023-01-22T04:41:03.075Z,23.90
2023-01-22T04:43:31.196Z,23.75
2023-01-22T04:45:59.413Z,21.65
2023-01-22T04:48:27.666Z,23.52
2023-01-22T04:50:57.842Z,21.48
2023-01-22T04:53:25.941Z,20.90
2023-01-22T04:55:53.978Z,21.05
2023-01-22T04:58:22.012Z,21.40
2023-01-22T05:00:50.046Z,21.17
2023-01-22T05:03:18.073Z,20.95
2023-01-22T05:05:46.174Z,21.23
2023-01-22T05:08:15.982Z,20.67
2023-01-22T05:10:44.030Z,21.52
2023-01-22T05:13:12.185Z,20.67
2023-01-22T05:15:40.297Z,20.58
2023-01-22T05:18:08.401Z,20.48
2023-01-22T05:20:36.444Z,20.13
2023-01-22T05:23:04.481Z,21.77
2023-01-22T05:25:33.914Z,20.27
2023-01-22T05:28:02.102Z,20.90
2023-01-22T05:30:30.286Z,22.20
2023-01-22T05:32:58.804Z,22.20
2023-01-22T05:35:26.891Z,23.15
2023-01-22T05:37:54.971Z,22.92
2023-01-22T05:40:23.005Z,23.90
2023-01-22T05:42:52.683Z,23.60
2023-01-22T05:45:21.019Z,24.50
2023-01-22T05:47:53.573Z,24.33
2023-01-22T05:50:21.917Z,25.92
2023-01-22T05:52:54.600Z,24.23
2023-01-22T05:55:23.041Z,25.80
2023-01-22T05:57:52.578Z,27.08
2023-01-22T06:00:21.175Z,24.05
2023-01-22T06:02:49.304Z,26.92
2023-01-22T06:05:17.525Z,26.27
2023-01-22T06:07:45.584Z,26.20
2023-01-22T06:10:13.594Z,25.80
2023-01-22T06:12:41.648Z,27.85
2023-01-22T06:15:12.540Z,28.90
2023-01-22T06:17:40.496Z,29.90
2023-01-22T06:20:10.926Z,29.83
2023-01-22T06:22:38.971Z,32.03
2023-01-22T06:25:09.710Z,31.08
2023-01-22T06:27:37.981Z,31.58
2023-01-22T06:30:07.086Z,32.10
2023-01-22T06:32:36.488Z,33.35
2023-01-22T06:35:04.777Z,32.90
2023-01-22T06:37:32.807Z,33.45
2023-01-22T06:40:00.938Z,38.13
2023-01-22T06:42:29.019Z,38.80
2023-01-22T06:44:57.035Z,37.55
2023-01-22T06:47:25.093Z,37.08
2023-01-22T06:49:54.527Z,36.22
2023-01-22T06:52:22.728Z,36.90
2023-01-22T06:54:50.828Z,36.10
2023-01-22T06:57:19.017Z,36.50
2023-01-22T06:59:47.141Z,36.28
2023-01-22T07:02:17.840Z,34.70
2023-01-22T07:04:45.880Z,32.42
2023-01-22T07:07:16.100Z,30.08
2023-01-22T07:09:44.198Z,27.33
2023-01-22T07:12:12.365Z,23.35
2023-01-22T07:14:40.490Z,23.10
2023-01-22T07:17:08.725Z,19.60
2023-01-22T07:19:36.845Z,20.83
2023-01-22T07:22:04.992Z,18.38
2023-01-22T07:24:34.647Z,19.40
2023-01-22T07:27:03.214Z,18.30
2023-01-22T07:29:31.383Z,17.10
2023-01-22T07:31:59.547Z,16.70
2023-01-22T07:34:27.748Z,17.83
2023-01-22T07:36:55.957Z,19.13
2023-01-22T07:39:24.042Z,18.52
2023-01-22T07:41:53.758Z,16.42
2023-01-22T07:44:21.793Z,16.40
2023-01-22T07:46:49.910Z,16.65
2023-01-22T07:49:17.984Z,19.10
2023-01-22T07:51:46.139Z,16.92
2023-01-22T07:54:15.072Z,16.35
2023-01-22T07:56:44.399Z,16.05
2023-01-22T07:59:14.011Z,16.73
2023-01-22T08:01:42.246Z,16.20
2023-01-22T08:04:10.404Z,15.52
2023-01-22T08:06:38.444Z,15.88
2023-01-22T08:09:07.066Z,15.10
2023-01-22T08:11:35.104Z,14.05
2023-01-22T08:14:03.206Z,13.43
2023-01-22T08:16:32.751Z,13.48
2023-01-22T08:19:00.785Z,14.32
2023-01-22T08:21:28.839Z,13.52
2023-01-22T08:23:56.906Z,17.33
2023-01-22T08:26:24.925Z,14.32
2023-01-22T08:28:52.908Z,14.40
2023-01-22T08:31:27.944Z,13.57
2023-01-22T08:33:59.752Z,12.85
2023-01-22T08:36:28.301Z,12.13
2023-01-22T08:38:56.841Z,12.63
2023-01-22T08:41:25.074Z,14.15
2023-01-22T08:43:53.803Z,12.77
2023-01-22T08:46:22.093Z,11.85
2023-01-22T08:48:50.838Z,11.27
2023-01-22T08:51:22.683Z,13.50
2023-01-22T08:53:50.955Z,12.88
2023-01-22T08:56:18.955Z,11.45
2023-01-22T08:58:49.933Z,11.43
2023-01-22T09:01:19.315Z,12.65
2023-01-22T09:03:48.800Z,11.98
2023-01-22T09:06:16.836Z,13.57
2023-01-22T09:08:46.188Z,12.25
2023-01-22T09:11:14.147Z,15.98
2023-01-22T09:13:42.096Z,12.50
2023-01-22T09:16:10.994Z,15.38
2023-01-22T09:18:39.416Z,14.57
2023-01-22T09:21:08.207Z,14.25
2023-01-22T09:23:36.349Z,13.55
2023-01-22T09:26:05.974Z,12.07
2023-01-22T09:28:36.014Z,12.48
2023-01-22T09:31:04.518Z,12.93
2023-01-22T09:33:32.526Z,12.48
2023-01-22T09:36:08.862Z,11.43
2023-01-22T09:38:37.155Z,9.25
2023-01-22T09:41:15.170Z,10.50
2023-01-22T09:43:49.541Z,10.30
2023-01-22T09:46:23.450Z,12.95
2023-01-22T09:48:56.215Z,13.70
2023-01-22T09:51:25.694Z,10.18
2023-01-22T09:53:58.239Z,10.60
2023-01-22T09:56:35.059Z,11.02
2023-01-22T09:59:06.269Z,10.43
2023-01-22T10:01:35.412Z,9.75
2023-01-22T10:04:15.256Z,9.00
2023-01-22T10:06:45.528Z,9.52
2023-01-22T10:09:16.564Z,12.93
2023-01-22T10:11:50.862Z,9.98
2023-01-22T10:14:20.780Z,10.00
2023-01-22T10:16:49.181Z,9.60
2023-01-22T10:19:24.257Z,10.82
2023-01-22T10:21:59.918Z,10.57
2023-01-22T10:24:28.324Z,12.23
2023-01-22T10:26:59.487Z,11.55
2023-01-22T10:29:32.235Z,13.48
2023-01-22T10:32:02.119Z,10.68
2023-01-22T10:34:32.884Z,11.45
2023-01-22T10:37:03.713Z,11.93
2023-01-22T10:39:41.312Z,12.27
2023-01-22T10:42:18.016Z,10.57
2023-01-22T10:44:46.168Z,10.65
2023-01-22T10:47:20.924Z,11.38
2023-01-22T10:49:49.982Z,12.30
2023-01-22T10:52:24.913Z,11.93
2023-01-22T10:54:56.371Z,12.02
2023-01-22T10:57:31.610Z,9.90
2023-01-22T11:00:08.542Z,10.73
2023-01-22T11:02:37.486Z,9.88
2023-01-22T11:05:15.398Z,14.30
2023-01-22T11:07:45.160Z,11.55
2023-01-22T11:10:21.022Z,11.38
2023-01-22T11:12:57.058Z,11.65
2023-01-22T11:15:31.600Z,9.90
2023-01-22T11:18:02.656Z,11.18
2023-01-22T11:20:36.289Z,10.38
2023-01-22T11:23:18.037Z,10.82
2023-01-22T11:26:02.394Z,10.25
2023-01-22T11:28:41.774Z,11.85
2023-01-22T11:31:32.333Z,10.25
2023-01-22T11:34:32.327Z,9.15
2023-01-22T11:37:06.106Z,9.40
2023-01-22T11:39:49.473Z,7.72
2023-01-22T11:42:30.980Z,7.95
2023-01-22T11:45:10.476Z,16.15
2023-01-22T11:47:53.335Z,9.57
2023-01-22T11:50:28.479Z,13.13
2023-01-22T11:53:10.203Z,10.25
2023-01-22T11:55:54.722Z,9.25
2023-01-22T11:58:32.626Z,11.30
2023-01-22T12:01:15.271Z,11.20
2023-01-22T12:04:00.757Z,8.02
2023-01-22T12:06:46.221Z,9.00
2023-01-22T12:09:22.369Z,10.93
2023-01-22T12:12:11.888Z,10.93
2023-01-22T12:14:55.141Z,9.07
2023-01-22T12:17:36.138Z,10.27
2023-01-22T12:20:34.543Z,9.45
2023-01-22T12:23:07.584Z,8.60
2023-01-22T12:25:44.980Z,11.57
2023-01-22T12:28:18.118Z,10.63
2023-01-22T12:30:53.780Z,11.02
2023-01-22T12:33:27.526Z,10.38
2023-01-22T12:35:59.335Z,10.13
2023-01-22T12:38:41.200Z,8.70
2023-01-22T12:41:45.628Z,10.05
2023-01-22T12:44:29.110Z,9.18
2023-01-22T12:47:06.352Z,9.10
2023-01-22T12:49:46.280Z,10.15
2023-01-22T12:52:33.310Z,7.50
2023-01-22T12:55:02.616Z,10.55
2023-01-22T12:57:39.499Z,7.80
2023-01-22T13:00:25.829Z,9.45
2023-01-22T13:02:54.241Z,10.10
2023-01-22T13:05:45.759Z,9.18
2023-01-22T13:08:27.090Z,11.77
2023-01-22T13:10:58.789Z,9.57
2023-01-22T13:13:30.697Z,9.35
2023-01-22T13:16:03.836Z,13.43
2023-01-22T13:18:36.235Z,10.73
2023-01-22T13:23:36.801Z,9.40
2023-01-22T13:26:05.714Z,9.52
2023-01-22T13:28:34.761Z,12.93
2023-01-22T13:31:05.153Z,11.90
2023-01-22T13:33:33.800Z,11.00
2023-01-22T13:36:11.683Z,11.95
2023-01-22T13:38:39.685Z,9.18
2023-01-22T13:41:11.005Z,11.15
2023-01-22T13:43:40.500Z,10.88
2023-01-22T13:46:13.912Z,8.73
2023-01-22T13:48:42.545Z,10.30
2023-01-22T13:51:18.616Z,11.65
2023-01-22T13:53:50.737Z,11.68
2023-01-22T13:56:21.887Z,9.77
2023-01-22T13:58:50.429Z,10.43
2023-01-22T14:01:29.814Z,11.70
2023-01-22T14:04:02.025Z,9.10
2023-01-22T14:08:59.981Z,13.32
2023-01-22T14:11:38.822Z,13.10
2023-01-22T14:14:17.028Z,9.48
2023-01-22T14:16:45.283Z,10.50
2023-01-22T14:19:13.378Z,10.57
2023-01-22T14:21:43.315Z,11.57
2023-01-22T14:24:11.811Z,10.00
2023-01-22T14:26:39.971Z,13.50
2023-01-22T14:29:08.847Z,11.43
2023-01-22T14:31:36.915Z,11.80
2023-01-22T14:34:05.089Z,11.48
2023-01-22T14:36:33.210Z,11.65
2023-01-22T14:39:02.600Z,11.07
2023-01-22T14:41:30.610Z,13.38
2023-01-22T14:43:58.567Z,12.88
2023-01-22T14:46:26.517Z,11.65
2023-01-22T14:48:54.559Z,13.02
2023-01-22T14:51:22.618Z,12.93
2023-01-22T14:53:50.707Z,10.95
2023-01-22T14:56:20.082Z,11.32
2023-01-22T14:58:49.669Z,13.52
2023-01-22T15:01:19.302Z,12.20
2023-01-22T15:03:47.628Z,9.20
2023-01-22T15:06:15.719Z,10.77
2023-01-22T15:08:43.689Z,15.35
2023-01-22T15:11:11.732Z,12.02
2023-01-22T15:13:41.088Z,11.25
2023-01-22T15:16:10.615Z,12.18
2023-01-22T15:18:39.680Z,12.63
2023-01-22T15:21:08.189Z,10.70
2023-01-22T15:23:36.661Z,11.45
2023-01-22T15:26:09.475Z,12.20
2023-01-22T15:28:37.834Z,12.48
2023-01-22T15:31:08.523Z,10.95
2023-01-22T15:33:37.085Z,10.00
2023-01-22T15:36:06.240Z,12.40
2023-01-22T15:38:34.234Z,12.50
2023-01-22T15:41:07.069Z,12.77
2023-01-22T15:43:37.674Z,12.07
2023-01-22T15:46:07.160Z,12.75
2023-01-22T15:51:26.372Z,11.38
2023-01-22T15:53:55.702Z,11.10
2023-01-22T15:56:25.683Z,11.57
2023-01-22T15:58:54.470Z,15.40
2023-01-22T16:01:24.456Z,12.10
2023-01-22T16:03:53.380Z,13.25
2023-01-22T16:06:23.523Z,14.25
2023-01-22T16:08:53.408Z,11.77
2023-01-22T16:11:22.302Z,12.98
2023-01-22T16:13:50.831Z,11.55
2023-01-22T16:16:20.481Z,12.20
2023-01-22T16:18:51.124Z,12.35
2023-01-22T16:21:21.732Z,14.43
2023-01-22T16:23:55.047Z,13.75
2023-01-22T16:26:25.559Z,14.40
2023-01-22T16:28:55.482Z,12.40
2023-01-22T16:31:27.624Z,13.50
2023-01-22T16:33:59.571Z,14.00
2023-01-22T16:36:32.416Z,13.80
2023-01-22T16:39:01.241Z,14.45
2023-01-22T16:41:30.795Z,13.63
2023-01-22T16:44:00.814Z,16.90
2023-01-22T16:46:30.535Z,15.15
2023-01-22T16:49:02.090Z,13.57
2023-01-22T16:51:35.709Z,14.00
2023-01-22T16:54:04.520Z,15.02
2023-01-22T16:56:33.432Z,22.75
2023-01-22T16:59:01.991Z,18.95
2023-01-22T17:01:30.874Z,17.25
2023-01-22T17:04:00.243Z,15.50
2023-01-22T17:06:31.281Z,16.17
2023-01-22T17:09:00.021Z,16.85
2023-01-22T17:11:28.212Z,18.20
2023-01-22T17:13:56.280Z,19.77
2023-01-22T17:16:24.353Z,17.25
2023-01-22T17:18:54.368Z,17.73
2023-01-22T17:21:23.892Z,18.42
2023-01-22T17:23:51.870Z,17.30
2023-01-22T17:26:19.951Z,20.77
2023-01-22T17:28:48.198Z,23.88
2023-01-22T17:31:17.649Z,15.27
2023-01-22T17:33:46.573Z,17.73
2023-01-22T17:36:16.401Z,17.83
2023-01-22T17:38:46.322Z,17.02
2023-01-22T17:41:16.167Z,19.70
2023-01-22T17:43:45.199Z,16.75
2023-01-22T17:46:15.862Z,15.88
2023-01-22T17:48:44.893Z,18.38
2023-01-22T17:51:14.756Z,19.85
2023-01-22T17:53:45.978Z,19.70
2023-01-22T17:56:16.443Z,17.25
2023-01-22T17:58:47.080Z,16.83
2023-01-22T18:01:16.486Z,18.27
2023-01-22T18:03:45.807Z,18.98
2023-01-22T18:06:14.501Z,20.77
2023-01-22T18:08:43.031Z,17.92
2023-01-22T18:11:16.038Z,18.63
2023-01-22T18:13:44.614Z,18.55
2023-01-22T18:16:15.409Z,18.27
2023-01-22T18:18:44.564Z,17.98
2023-01-22T18:21:16.274Z,21.60
2023-01-22T18:23:44.690Z,21.92
2023-01-22T18:26:15.824Z,18.92
2023-01-22T18:28:44.097Z,20.33
2023-01-22T18:31:13.780Z,19.15
2023-01-22T18:33:44.412Z,19.73
2023-01-22T18:36:15.698Z,19.58
2023-01-22T18:38:44.412Z,19.20
2023-01-22T18:41:16.426Z,18.27
2023-01-22T18:43:48.443Z,25.45
2023-01-22T18:46:17.727Z,21.63
2023-01-22T18:48:46.520Z,19.63
2023-01-22T18:51:14.886Z,21.23
2023-01-22T18:53:43.346Z,21.83
2023-01-22T18:56:13.924Z,22.58
2023-01-22T18:58:44.610Z,25.60
2023-01-22T19:01:17.054Z,20.77
2023-01-22T19:03:48.375Z,21.15
2023-01-22T19:06:18.889Z,20.35
2023-01-22T19:08:48.815Z,24.40
2023-01-22T19:11:18.350Z,20.70
2023-01-22T19:13:46.362Z,23.13
2023-01-22T19:16:16.600Z,26.23
2023-01-22T19:18:46.511Z,23.23
2023-01-22T19:21:16.521Z,23.60
2023-01-22T19:23:45.890Z,25.52
2023-01-22T19:26:19.404Z,26.23
2023-01-22T19:28:47.588Z,25.15
2023-01-22T19:31:17.115Z,25.98
2023-01-22T19:33:45.416Z,26.38
2023-01-22T19:36:13.434Z,26.13
2023-01-22T19:38:41.537Z,27.63
2023-01-22T19:41:09.895Z,27.80
2023-01-22T19:43:39.416Z,28.60
2023-01-22T19:46:09.851Z,28.02
2023-01-22T19:48:39.166Z,29.02
2023-01-22T19:51:09.756Z,28.92
2023-01-22T19:53:38.487Z,27.83
2023-01-22T19:56:15.049Z,29.13
2023-01-22T19:58:44.476Z,27.58
2023-01-22T20:01:13.518Z,32.10
2023-01-22T20:03:42.117Z,27.77
2023-01-22T20:06:12.137Z,29.85
2023-01-22T20:08:40.214Z,28.58
2023-01-22T20:11:10.508Z,30.23
2023-01-22T20:13:39.643Z,31.67
2023-01-22T20:16:18.527Z,31.75
2023-01-22T20:18:47.788Z,31.08
2023-01-22T20:21:16.976Z,31.42
2023-01-22T20:23:45.804Z,30.95
2023-01-22T20:26:14.350Z,33.08
2023-01-22T20:28:42.894Z,32.45
2023-01-22T20:31:15.243Z,33.13
2023-01-22T20:36:15.145Z,32.17
2023-01-22T20:38:43.467Z,37.60
2023-01-22T20:41:11.482Z,32.63
2023-01-22T20:43:41.750Z,33.63
2023-01-22T20:46:14.021Z,36.33
2023-01-22T20:51:15.331Z,33.13
2023-01-22T20:53:44.094Z,34.78
2023-01-22T20:56:15.013Z,35.10
2023-01-22T20:58:43.203Z,35.17
2023-01-22T21:01:15.766Z,36.30
2023-01-22T21:03:44.782Z,39.88
2023-01-22T21:06:14.835Z,39.50
2023-01-22T21:08:43.679Z,38.30
2023-01-22T21:11:17.745Z,38.72
2023-01-22T21:13:45.762Z,39.35
2023-01-22T21:16:17.396Z,42.22
2023-01-22T21:18:46.656Z,40.28
2023-01-22T21:21:17.823Z,42.47
2023-01-22T21:23:47.835Z,40.58
2023-01-22T21:26:19.159Z,41.42
2023-01-22T21:28:48.320Z,41.30
2023-01-22T21:31:19.694Z,40.72
2023-01-22T21:33:48.676Z,41.58
2023-01-22T21:36:19.552Z,39.03
2023-01-22T21:38:48.192Z,50.55
2023-01-22T21:41:17.861Z,43.10
2023-01-22T21:44:05.156Z,45.35
2023-01-22T21:46:36.396Z,43.42
2023-01-22T21:49:16.308Z,42.42
2023-01-22T21:51:46.723Z,41.35
2023-01-22T21:54:16.826Z,43.00
2023-01-22T21:56:45.176Z,46.53
2023-01-22T21:59:13.304Z,42.80
2023-01-22T22:01:42.935Z,40.30
2023-01-22T22:04:12.177Z,41.67
2023-01-22T22:06:40.615Z,39.63
2023-01-22T22:09:11.756Z,40.38
2023-01-22T22:11:39.828Z,41.40
2023-01-22T22:14:10.101Z,41.13
2023-01-22T22:16:38.538Z,41.00
2023-01-22T22:19:08.070Z,40.03
2023-01-22T22:21:36.831Z,39.88
2023-01-22T22:24:05.271Z,38.05
2023-01-22T22:26:33.573Z,40.03
2023-01-22T22:29:01.655Z,38.35
2023-01-22T22:31:29.748Z,38.30
2023-01-22T22:33:58.653Z,39.03
2023-01-22T22:36:30.328Z,39.70
2023-01-22T22:38:58.955Z,38.17
2023-01-22T22:41:28.647Z,36.05
2023-01-22T22:43:57.171Z,38.08
2023-01-22T22:46:27.285Z,38.22
2023-01-22T22:48:56.508Z,39.70
2023-01-22T22:51:27.514Z,37.08
2023-01-22T22:53:58.845Z,36.85
2023-01-22T22:56:28.381Z,35.55
2023-01-22T22:58:56.628Z,34.80
2023-01-22T23:01:26.558Z,32.63
2023-01-22T23:03:55.065Z,33.72
2023-01-22T23:06:26.280Z,34.65
2023-01-22T23:08:57.405Z,34.30
2023-01-22T23:11:28.202Z,32.65
2023-01-22T23:14:01.211Z,33.55
2023-01-22T23:16:30.969Z,35.33
2023-01-22T23:19:01.039Z,35.05
2023-01-22T23:21:29.854Z,34.00
2023-01-22T23:23:59.186Z,34.97
2023-01-22T23:26:29.917Z,36.70
2023-01-22T23:29:00.484Z,35.85
2023-01-22T23:31:30.170Z,34.53
2023-01-22T23:33:58.548Z,35.00
2023-01-22T23:36:27.088Z,36.55
2023-01-22T23:38:55.918Z,36.90
2023-01-22T23:41:25.348Z,35.80
2023-01-22T23:43:53.498Z,36.75
2023-01-22T23:46:23.820Z,36.28
2023-01-22T23:48:52.288Z,34.30
2023-01-22T23:51:20.887Z,34.97
2023-01-22T23:53:51.687Z,36.35
2023-01-22T23:56:21.007Z,35.58
2023-01-22T23:58:50.777Z,34.50
